Time;durP1;ratioP1;P1;durP2;ratioP2;P2;SDS_P1;SDS_P2;PMS_P1;PMS_P2;Temp;Humidity;BMP_temperature;BMP_pressure;BME280_temperature;BME280_humidity;BME280_pressure;Samples;Min_cycle;Max_cycle;Signal;HPM_P1;HPM_P2
2021/10/09 00:01:42;;;;;;;23.70;12.73;;;12.60;99.60;;;;;;5033027;28;20112;-75
2021/10/09 00:04:09;;;;;;;26.52;13.10;;;12.60;99.60;;;;;;5032899;28;20441;-75
2021/10/09 00:06:34;;;;;;;24.00;13.13;;;12.50;99.60;;;;;;5033109;28;20377;-75
2021/10/09 00:09:02;;;;;;;22.13;13.23;;;12.50;99.60;;;;;;5033641;28;20025;-75
2021/10/09 00:11:37;;;;;;;23.10;12.80;;;12.50;99.60;;;;;;5032976;28;20037;-75
2021/10/09 00:14:07;;;;;;;23.45;12.60;;;12.50;99.60;;;;;;5032369;28;20036;-75
2021/10/09 00:16:33;;;;;;;25.90;13.90;;;12.50;99.60;;;;;;5032089;28;20029;-75
2021/10/09 00:18:59;;;;;;;26.13;13.82;;;12.50;99.60;;;;;;5032496;28;20044;-75
2021/10/09 00:21:25;;;;;;;25.95;13.73;;;12.50;99.60;;;;;;5031805;28;20021;-75
2021/10/09 00:23:51;;;;;;;26.80;13.73;;;12.50;99.60;;;;;;5033526;28;20043;-75
2021/10/09 00:26:17;;;;;;;26.30;13.95;;;12.50;99.60;;;;;;5033087;28;20398;-75
2021/10/09 00:28:43;;;;;;;23.15;13.52;;;12.50;99.60;;;;;;5033522;28;20021;-75
2021/10/09 00:31:09;;;;;;;24.20;13.10;;;12.50;99.60;;;;;;5033703;28;20033;-74
2021/10/09 00:33:35;;;;;;;25.88;14.00;;;12.50;99.60;;;;;;5031593;28;20104;-75
2021/10/09 00:36:00;;;;;;;25.38;12.90;;;12.50;99.60;;;;;;5032149;28;20526;-73
2021/10/09 00:38:26;;;;;;;24.17;13.63;;;12.40;99.60;;;;;;5032522;28;20100;-75
2021/10/09 00:40:52;;;;;;;23.20;12.70;;;12.40;99.60;;;;;;5033009;28;20036;-75
2021/10/09 00:43:18;;;;;;;28.77;13.45;;;12.40;99.60;;;;;;5032725;28;20021;-75
2021/10/09 00:45:57;;;;;;;26.63;13.38;;;12.40;99.60;;;;;;5033045;28;20052;-74
2021/10/09 00:48:24;;;;;;;23.98;13.07;;;12.40;99.60;;;;;;5032704;28;20064;-74
2021/10/09 00:50:51;;;;;;;26.42;14.25;;;12.40;99.60;;;;;;5015548;28;20087;-74
2021/10/09 00:53:19;;;;;;;23.45;12.40;;;12.40;99.70;;;;;;5032791;28;20029;-74
2021/10/09 00:55:48;;;;;;;26.02;12.82;;;12.40;99.70;;;;;;5033396;28;20346;-74
2021/10/09 00:58:15;;;;;;;24.65;13.20;;;12.40;99.70;;;;;;5031736;28;20040;-74
2021/10/09 01:00:42;;;;;;;24.20;13.38;;;12.40;99.60;;;;;;5033031;28;20025;-74
2021/10/09 01:03:09;;;;;;;24.98;13.40;;;12.40;99.70;;;;;;5032684;28;20049;-75
2021/10/09 01:05:36;;;;;;;25.10;13.77;;;12.40;99.70;;;;;;5032573;28;20421;-73
2021/10/09 01:08:03;;;;;;;27.15;13.40;;;12.30;99.70;;;;;;5032903;28;20051;-73
2021/10/09 01:10:29;;;;;;;23.60;12.48;;;12.40;99.70;;;;;;5032108;28;20029;-74
2021/10/09 01:12:54;;;;;;;31.17;13.98;;;12.30;99.70;;;;;;5031367;28;20512;-74
2021/10/09 01:15:24;;;;;;;25.83;14.27;;;12.30;99.70;;;;;;5032080;28;20025;-74
2021/10/09 01:17:50;;;;;;;23.73;12.07;;;12.30;99.90;;;;;;5031533;28;20017;-74
2021/10/09 01:20:16;;;;;;;24.58;13.05;;;12.30;99.70;;;;;;5031390;28;20454;-74
2021/10/09 01:22:44;;;;;;;24.67;13.23;;;12.30;99.70;;;;;;5031345;28;20462;-74
2021/10/09 01:25:10;;;;;;;25.63;13.82;;;12.30;99.70;;;;;;5031346;28;20112;-74
2021/10/09 01:27:39;;;;;;;29.40;14.45;;;12.30;99.70;;;;;;5032002;28;20426;-74
2021/10/09 01:30:07;;;;;;;30.05;14.02;;;12.30;99.70;;;;;;5031232;28;20014;-74
2021/10/09 01:32:33;;;;;;;23.67;13.15;;;12.30;99.70;;;;;;5030887;28;20036;-75
2021/10/09 01:35:06;;;;;;;26.55;13.40;;;12.20;99.70;;;;;;5032857;28;20025;-74
2021/10/09 01:37:41;;;;;;;23.40;11.77;;;12.20;99.70;;;;;;5031811;28;20127;-75
2021/10/09 01:40:08;;;;;;;26.38;13.07;;;12.20;99.70;;;;;;5047685;28;20026;-74
2021/10/09 01:42:35;;;;;;;24.75;13.27;;;12.20;99.70;;;;;;5030324;28;20032;-74
2021/10/09 01:45:04;;;;;;;25.17;13.60;;;12.20;99.70;;;;;;5031066;28;20021;-74
2021/10/09 01:47:29;;;;;;;25.52;13.15;;;12.20;99.70;;;;;;5030075;28;20046;-73
2021/10/09 01:49:55;;;;;;;26.33;13.40;;;12.20;99.70;;;;;;5030855;28;20033;-73
2021/10/09 01:52:20;;;;;;;21.60;12.30;;;12.20;99.70;;;;;;5030212;28;20034;-76
2021/10/09 01:54:47;;;;;;;24.83;12.82;;;12.20;99.70;;;;;;5030848;28;20017;-76
2021/10/09 01:57:13;;;;;;;21.52;12.57;;;12.20;99.70;;;;;;5032137;28;20057;-75
2021/10/09 01:59:39;;;;;;;23.35;13.15;;;12.10;99.70;;;;;;5031416;28;20111;-73
2021/10/09 02:02:04;;;;;;;23.35;13.00;;;12.10;99.70;;;;;;5047394;28;20017;-74
2021/10/09 02:04:30;;;;;;;29.35;14.70;;;12.10;99.70;;;;;;5031499;28;20457;-73
2021/10/09 02:06:56;;;;;;;23.95;13.35;;;12.10;99.70;;;;;;5030768;28;20026;-73
2021/10/09 02:09:21;;;;;;;26.17;14.32;;;12.10;99.70;;;;;;5030094;28;20052;-74
2021/10/09 02:11:49;;;;;;;30.80;14.25;;;12.10;99.70;;;;;;5030626;28;20061;-73
2021/10/09 02:14:24;;;;;;;26.85;13.00;;;12.10;99.70;;;;;;5031949;28;20100;-75
2021/10/09 02:25:37;;;;;;;27.17;14.05;;;12.00;99.70;;;;;;5036007;28;20059;-75
2021/10/09 02:28:03;;;;;;;27.05;13.60;;;12.00;99.70;;;;;;5036053;28;20472;-75
2021/10/09 02:30:29;;;;;;;26.60;13.80;;;12.00;99.70;;;;;;5035202;28;20025;-75
2021/10/09 02:32:55;;;;;;;22.88;13.43;;;12.00;99.70;;;;;;5034452;28;20030;-75
2021/10/09 02:35:20;;;;;;;24.95;13.23;;;12.00;99.70;;;;;;5035696;28;20052;-74
2021/10/09 02:37:46;;;;;;;25.40;12.98;;;11.90;99.70;;;;;;5035135;28;20461;-75
2021/10/09 02:40:13;;;;;;;25.98;14.02;;;12.00;99.70;;;;;;5034380;28;20361;-74
2021/10/09 02:42:38;;;;;;;24.20;13.00;;;11.90;99.70;;;;;;5035018;28;20014;-75
2021/10/09 02:45:05;;;;;;;23.77;12.95;;;11.90;99.70;;;;;;5034297;28;20036;-74
2021/10/09 02:47:31;;;;;;;25.45;13.43;;;11.90;99.70;;;;;;5034374;28;20083;-75
2021/10/09 02:49:56;;;;;;;25.77;12.68;;;11.80;99.70;;;;;;5035609;28;20025;-75
2021/10/09 02:52:22;;;;;;;26.55;13.80;;;11.80;99.70;;;;;;5035017;28;20056;-75
2021/10/09 02:54:48;;;;;;;27.23;13.57;;;11.80;99.70;;;;;;5033752;28;20480;-75
2021/10/09 02:57:13;;;;;;;27.88;14.57;;;11.80;99.70;;;;;;5034224;28;20044;-75
2021/10/09 02:59:39;;;;;;;30.30;15.35;;;11.80;99.70;;;;;;5050098;28;20449;-75
2021/10/09 03:02:04;;;;;;;22.90;12.15;;;11.80;99.70;;;;;;5035169;28;20365;-74
2021/10/09 03:04:31;;;;;;;26.58;14.35;;;11.80;99.70;;;;;;5033312;28;20032;-75
2021/10/09 03:06:57;;;;;;;23.48;12.52;;;11.80;99.70;;;;;;5033887;28;20017;-75
2021/10/09 03:09:23;;;;;;;27.08;14.43;;;11.70;99.70;;;;;;5033779;28;20013;-75
2021/10/09 03:11:48;;;;;;;25.02;13.95;;;11.80;99.80;;;;;;5034425;28;20087;-75
2021/10/09 03:14:14;;;;;;;23.85;12.38;;;11.80;99.80;;;;;;5034966;28;20036;-74
2021/10/09 03:16:40;;;;;;;24.17;13.02;;;11.70;99.70;;;;;;5032964;28;20009;-75
2021/10/09 03:19:05;;;;;;;22.80;12.75;;;11.70;99.70;;;;;;5035175;28;20024;-75
2021/10/09 03:21:31;;;;;;;24.58;13.07;;;11.70;99.70;;;;;;5034576;28;20104;-75
2021/10/09 03:23:57;;;;;;;24.83;12.63;;;11.70;99.70;;;;;;5034541;28;20124;-75
2021/10/09 03:26:23;;;;;;;22.15;12.55;;;11.70;99.70;;;;;;5034621;28;20072;-74
2021/10/09 03:28:48;;;;;;;22.70;12.65;;;11.70;99.70;;;;;;5034153;28;20541;-74
2021/10/09 03:31:14;;;;;;;24.13;12.95;;;11.60;99.70;;;;;;5033409;28;20029;-75
2021/10/09 03:33:40;;;;;;;24.92;13.75;;;11.60;99.70;;;;;;5034031;28;20021;-75
2021/10/09 03:36:06;;;;;;;23.45;12.65;;;11.60;99.70;;;;;;5034820;28;20453;-74
2021/10/09 03:38:32;;;;;;;25.77;14.43;;;11.60;99.70;;;;;;5032660;28;20044;-75
2021/10/09 03:41:03;;;;;;;23.05;13.10;;;11.60;99.60;;;;;;5049864;28;20022;-74
2021/10/09 03:43:29;;;;;;;26.33;12.75;;;11.50;99.60;;;;;;5033922;28;20037;-75
2021/10/09 03:49:02;;;;;;;24.83;13.25;;;11.50;99.70;;;;;;5051893;28;20024;-75
2021/10/09 03:54:12;;;;;;;23.42;12.32;;;11.50;99.70;;;;;;5034249;28;20063;-75
2021/10/09 03:56:38;;;;;;;25.73;13.65;;;11.50;99.70;;;;;;5033780;28;20384;-75
2021/10/09 03:59:04;;;;;;;24.73;13.25;;;11.50;99.70;;;;;;5034118;28;20030;-75
2021/10/09 04:01:30;;;;;;;24.40;13.18;;;11.40;99.70;;;;;;5033487;28;20025;-75
2021/10/09 04:03:56;;;;;;;24.65;12.13;;;11.40;99.70;;;;;;5033768;28;20412;-75
2021/10/09 04:06:22;;;;;;;24.90;13.75;;;11.40;99.70;;;;;;5033773;28;20029;-75
2021/10/09 04:08:47;;;;;;;27.00;13.77;;;11.50;99.70;;;;;;5033089;28;20485;-75
2021/10/09 04:11:13;;;;;;;22.77;12.75;;;11.40;99.70;;;;;;5032622;28;20121;-75
2021/10/09 04:13:39;;;;;;;25.88;14.05;;;11.40;99.60;;;;;;5033456;28;20021;-75
2021/10/09 04:16:05;;;;;;;28.63;13.82;;;11.40;99.60;;;;;;5024286;28;20026;-75
2021/10/09 04:18:30;;;;;;;22.67;12.32;;;11.40;99.60;;;;;;5013491;28;20018;-76
2021/10/09 04:20:56;;;;;;;23.38;12.43;;;11.30;99.60;;;;;;5029215;28;20413;-75
2021/10/09 04:23:22;;;;;;;24.02;13.02;;;11.30;99.60;;;;;;5029169;28;20022;-75
2021/10/09 04:25:47;;;;;;;22.17;11.85;;;11.30;99.70;;;;;;5013314;28;20045;-75
2021/10/09 04:28:13;;;;;;;24.42;13.07;;;11.30;99.70;;;;;;5013843;28;20057;-75
2021/10/09 04:30:39;;;;;;;23.70;13.07;;;11.20;99.70;;;;;;5013181;28;20033;-75
2021/10/09 04:33:04;;;;;;;23.73;12.88;;;11.20;99.70;;;;;;5028969;28;20033;-74
2021/10/09 04:35:30;;;;;;;25.77;13.10;;;11.20;99.70;;;;;;5013152;28;20121;-76
2021/10/09 04:37:56;;;;;;;22.88;12.23;;;11.20;99.70;;;;;;5013051;28;20417;-74
2021/10/09 04:40:21;;;;;;;25.30;13.73;;;11.20;99.70;;;;;;5013641;28;20021;-75
2021/10/09 04:42:47;;;;;;;27.23;13.55;;;11.20;99.70;;;;;;5028052;28;20486;-75
2021/10/09 04:45:13;;;;;;;25.50;12.63;;;11.20;99.70;;;;;;5013184;28;20090;-73
2021/10/09 04:47:38;;;;;;;22.92;12.27;;;11.10;99.70;;;;;;5027773;28;20073;-74
2021/10/09 04:50:05;;;;;;;24.77;12.82;;;11.10;99.70;;;;;;5013377;28;20033;-74
2021/10/09 04:52:31;;;;;;;24.58;13.27;;;11.10;99.70;;;;;;5013133;28;20034;-76
2021/10/09 04:54:57;;;;;;;24.55;12.85;;;11.10;99.70;;;;;;5013096;28;20054;-73
2021/10/09 04:57:23;;;;;;;26.45;13.60;;;11.10;99.70;;;;;;5013394;28;20065;-73
2021/10/09 04:59:50;;;;;;;24.17;13.45;;;11.10;99.70;;;;;;5012656;28;20340;-74
2021/10/09 05:02:16;;;;;;;21.13;12.15;;;11.10;99.70;;;;;;5013445;28;20029;-74
2021/10/09 05:04:42;;;;;;;25.45;12.88;;;11.00;99.70;;;;;;5027685;28;20025;-73
2021/10/09 05:07:07;;;;;;;27.15;13.20;;;11.00;99.70;;;;;;5013472;28;20057;-74
2021/10/09 05:09:33;;;;;;;23.98;12.85;;;11.00;99.70;;;;;;5012264;28;20033;-74
2021/10/09 05:11:59;;;;;;;24.42;12.38;;;11.00;99.60;;;;;;5013268;28;20041;-74
2021/10/09 05:14:24;;;;;;;26.95;13.05;;;11.00;99.60;;;;;;5028238;28;20022;-74
2021/10/09 05:16:50;;;;;;;22.33;12.48;;;10.90;99.60;;;;;;5027410;28;20026;-74
2021/10/09 05:19:16;;;;;;;28.13;14.07;;;10.90;99.60;;;;;;5028003;28;20105;-74
2021/10/09 05:21:42;;;;;;;25.00;13.20;;;10.90;99.70;;;;;;5027353;28;20473;-74
2021/10/09 05:24:07;;;;;;;24.33;13.07;;;10.90;99.70;;;;;;5011560;28;20067;-75
2021/10/09 05:26:36;;;;;;;24.73;12.13;;;10.90;99.70;;;;;;5012749;28;20018;-76
2021/10/09 05:29:02;;;;;;;23.73;12.73;;;10.90;99.70;;;;;;5011447;28;20462;-74
2021/10/09 05:31:32;;;;;;;23.58;12.75;;;10.90;99.60;;;;;;5027908;28;20033;-74
2021/10/09 05:33:58;;;;;;;22.33;13.10;;;10.90;99.60;;;;;;5012225;28;20018;-74
2021/10/09 05:36:26;;;;;;;28.10;12.98;;;10.90;99.60;;;;;;5012344;28;20032;-74
2021/10/09 05:38:52;;;;;;;25.88;13.00;;;10.90;99.70;;;;;;5027110;28;20018;-75
2021/10/09 05:41:18;;;;;;;24.05;12.85;;;10.80;99.60;;;;;;5028010;28;20030;-74
2021/10/09 05:43:45;;;;;;;24.98;13.05;;;10.80;99.70;;;;;;5011874;28;20079;-74
2021/10/09 05:46:12;;;;;;;23.20;13.13;;;10.80;99.70;;;;;;5011985;28;20026;-74
2021/10/09 05:48:39;;;;;;;25.55;12.80;;;10.80;99.60;;;;;;5027189;28;20021;-75
2021/10/09 07:01:21;;;;;;;25.42;14.30;;;10.80;99.40;;;;;;5012377;28;20044;-75
2021/10/09 07:03:46;;;;;;;27.20;12.52;;;10.80;99.40;;;;;;5014736;28;20022;-76
2021/10/09 07:06:15;;;;;;;25.88;12.63;;;10.80;99.40;;;;;;5030219;28;20489;-76
2021/10/09 07:08:41;;;;;;;23.92;13.48;;;10.90;99.50;;;;;;5014502;28;20018;-76
2021/10/09 07:11:08;;;;;;;23.42;12.45;;;10.90;99.50;;;;;;5014969;28;20492;-76
2021/10/09 07:13:34;;;;;;;25.63;12.90;;;10.90;99.50;;;;;;5014994;28;20228;-75
2021/10/09 07:15:59;;;;;;;25.02;12.23;;;10.90;99.50;;;;;;5014361;28;20132;-76
2021/10/09 07:18:25;;;;;;;26.88;13.63;;;10.90;99.40;;;;;;5014638;28;20029;-76
2021/10/09 07:20:51;;;;;;;20.73;11.20;;;11.00;99.50;;;;;;5031976;28;20036;-76
2021/10/09 07:23:16;;;;;;;29.40;13.80;;;11.00;99.40;;;;;;5034609;28;20053;-76
2021/10/09 07:25:42;;;;;;;26.00;13.88;;;11.00;99.40;;;;;;5032726;28;20029;-76
2021/10/09 07:28:08;;;;;;;28.33;14.15;;;11.00;99.40;;;;;;5034570;28;20112;-76
2021/10/09 07:30:34;;;;;;;26.30;12.73;;;11.10;99.50;;;;;;5033222;28;20049;-76
2021/10/09 07:33:00;;;;;;;23.40;12.57;;;11.00;99.40;;;;;;5033796;28;20057;-76
2021/10/09 07:35:26;;;;;;;24.67;12.75;;;11.00;99.40;;;;;;5034247;28;20167;-76
2021/10/09 07:37:51;;;;;;;26.10;14.15;;;11.10;99.40;;;;;;5032441;28;20021;-76
2021/10/09 07:40:18;;;;;;;24.83;12.50;;;11.00;99.40;;;;;;5033092;28;20021;-75
2021/10/09 07:42:44;;;;;;;22.80;12.90;;;11.10;99.40;;;;;;5032083;28;20030;-77
2021/10/09 07:45:10;;;;;;;26.30;12.50;;;11.00;99.40;;;;;;5033821;28;20028;-76
2021/10/09 07:47:35;;;;;;;27.38;13.43;;;11.10;99.40;;;;;;5033888;28;20060;-76
2021/10/09 07:50:01;;;;;;;23.60;12.38;;;11.00;99.30;;;;;;5032192;28;20428;-76
2021/10/09 07:52:27;;;;;;;24.85;13.07;;;11.00;99.40;;;;;;5032541;28;20044;-76
2021/10/09 07:54:53;;;;;;;22.90;11.68;;;11.00;99.40;;;;;;5033438;28;20021;-76
2021/10/09 07:57:18;;;;;;;23.60;12.32;;;11.00;99.40;;;;;;5032699;28;20355;-75
2021/10/09 07:59:44;;;;;;;26.95;11.77;;;11.10;99.30;;;;;;5033596;28;20026;-76
2021/10/09 08:02:10;;;;;;;26.73;13.32;;;11.10;99.20;;;;;;5032270;28;20025;-75
2021/10/09 08:04:35;;;;;;;25.13;13.27;;;11.20;99.10;;;;;;5033556;28;20025;-75
2021/10/09 08:07:01;;;;;;;26.77;13.75;;;11.30;98.90;;;;;;5031855;28;20032;-76
2021/10/09 08:09:31;;;;;;;22.52;11.73;;;11.40;98.80;;;;;;5033159;28;20037;-75
2021/10/09 08:11:57;;;;;;;24.77;11.40;;;11.40;98.80;;;;;;5030903;28;20021;-74
2021/10/09 08:14:22;;;;;;;26.48;12.70;;;11.50;98.60;;;;;;5032498;28;20022;-74
2021/10/09 08:16:48;;;;;;;24.45;12.60;;;11.50;98.50;;;;;;5031830;28;20025;-74
2021/10/09 08:19:14;;;;;;;18.52;9.27;;;11.50;98.40;;;;;;5033924;28;20033;-75
2021/10/09 08:21:42;;;;;;;25.08;12.32;;;11.60;98.40;;;;;;5033319;28;20033;-75
2021/10/09 08:26:56;;;;;;;25.08;11.90;;;11.60;98.30;;;;;;5033679;28;20469;-75
2021/10/09 08:40:23;;;;;;;23.02;12.48;;;11.50;98.40;;;;;;5020401;28;20065;-76
2021/10/09 08:42:49;;;;;;;28.25;13.50;;;11.30;98.50;;;;;;5029761;28;20079;-76
2021/10/09 08:45:15;;;;;;;25.13;13.13;;;11.30;98.70;;;;;;5030942;28;20034;-75
2021/10/09 08:47:42;;;;;;;27.80;15.02;;;11.30;98.70;;;;;;5029173;28;20049;-75
2021/10/09 08:50:09;;;;;;;25.85;14.25;;;11.30;98.70;;;;;;5030089;28;20435;-76
2021/10/09 08:52:36;;;;;;;25.88;12.68;;;11.40;98.70;;;;;;5028107;28;20033;-76
2021/10/09 08:55:25;;;;;;;25.73;14.00;;;11.50;98.60;;;;;;5025109;28;20030;-76
2021/10/09 08:57:51;;;;;;;27.92;14.70;;;11.60;98.50;;;;;;5015602;28;20029;-76
2021/10/09 09:00:23;;;;;;;28.70;14.50;;;11.60;98.40;;;;;;5021844;28;20060;-76
2021/10/09 09:03:06;;;;;;;29.65;15.75;;;11.70;98.40;;;;;;5030087;28;20033;-76
2021/10/09 09:41:21;;;;;;;28.40;14.93;;;11.90;98.10;;;;;;5017431;28;20119;-74
2021/10/09 09:43:52;;;;;;;26.27;14.05;;;12.00;98.00;;;;;;5018985;28;20062;-75
2021/10/09 09:46:21;;;;;;;27.60;13.88;;;12.10;97.90;;;;;;5035217;28;20028;-75
2021/10/09 09:48:47;;;;;;;31.67;14.80;;;12.10;97.80;;;;;;5008675;28;20417;-75
2021/10/09 09:51:15;;;;;;;30.88;14.98;;;12.10;97.80;;;;;;5024609;28;20033;-75
2021/10/09 09:53:44;;;;;;;30.17;15.38;;;12.20;97.80;;;;;;5028750;28;20079;-75
2021/10/09 09:56:11;;;;;;;26.13;15.02;;;12.20;97.80;;;;;;5014888;28;20018;-75
2021/10/09 09:58:40;;;;;;;23.98;14.07;;;12.20;97.80;;;;;;5009993;28;20055;-76
2021/10/09 10:01:08;;;;;;;25.10;14.52;;;12.20;97.80;;;;;;5009033;28;20095;-76
2021/10/09 10:03:35;;;;;;;27.88;13.48;;;12.30;97.80;;;;;;5010005;28;20523;-76
2021/10/09 10:06:04;;;;;;;26.65;13.88;;;12.30;98.00;;;;;;5038028;28;20029;-76
2021/10/09 10:08:31;;;;;;;26.73;12.57;;;12.30;97.80;;;;;;5028097;28;20095;-76
2021/10/09 10:10:59;;;;;;;24.95;13.25;;;12.40;97.80;;;;;;5016792;28;20048;-77
2021/10/09 10:13:28;;;;;;;26.27;14.40;;;12.40;97.70;;;;;;5018906;28;20021;-76
2021/10/09 10:15:55;;;;;;;25.15;13.13;;;12.50;97.70;;;;;;5044225;28;20585;-76
2021/10/09 10:18:43;;;;;;;30.52;14.40;;;12.50;97.70;;;;;;5016611;28;20034;-76
2021/10/09 10:21:16;;;;;;;26.02;13.27;;;12.60;97.60;;;;;;5008430;28;20026;-76
2021/10/09 10:23:45;;;;;;;26.67;13.95;;;12.60;97.60;;;;;;5009060;28;20029;-75
2021/10/09 10:26:19;;;;;;;26.23;13.52;;;12.60;97.50;;;;;;5007483;28;20148;-76
2021/10/09 10:28:46;;;;;;;21.63;10.65;;;12.70;97.40;;;;;;5018170;28;20430;-76
2021/10/09 10:31:11;;;;;;;26.42;12.55;;;12.70;97.40;;;;;;5009209;28;20061;-78
2021/10/09 10:33:40;;;;;;;25.80;12.00;;;12.80;97.50;;;;;;5009609;28;20380;-75
2021/10/09 10:36:08;;;;;;;23.15;13.07;;;12.90;97.40;;;;;;5013020;28;20171;-75
2021/10/09 10:38:36;;;;;;;25.73;13.32;;;12.90;97.40;;;;;;5014993;28;20022;-76
2021/10/09 10:41:04;;;;;;;28.45;12.75;;;12.90;97.30;;;;;;5015081;28;20061;-76
2021/10/09 10:46:28;;;;;;;22.80;12.80;;;13.10;97.30;;;;;;5015090;28;20018;-76
2021/10/09 10:49:04;;;;;;;25.73;12.48;;;13.20;97.20;;;;;;5014505;28;20042;-76
2021/10/09 10:54:33;;;;;;;24.88;12.35;;;13.30;97.10;;;;;;5015043;28;20034;-76
2021/10/09 10:57:04;;;;;;;25.05;11.85;;;13.40;97.00;;;;;;5013562;28;20079;-76
2021/10/09 10:59:29;;;;;;;;;;;13.50;97.20;;;;;;5016080;28;20026;-76
2021/10/09 11:02:12;;;;;;;24.30;12.52;;;13.50;96.90;;;;;;5015567;28;20048;-76
2021/10/09 11:04:42;;;;;;;24.17;12.30;;;13.60;96.80;;;;;;5016432;28;20447;-76
2021/10/09 11:07:09;;;;;;;21.15;11.48;;;13.70;96.80;;;;;;5014667;28;20088;-76
2021/10/09 11:09:37;;;;;;;21.15;11.57;;;13.80;96.80;;;;;;5025866;28;20026;-76
2021/10/09 11:12:03;;;;;;;21.35;12.15;;;13.80;96.80;;;;;;5014301;28;20029;-75
2021/10/09 11:14:30;;;;;;;27.42;13.45;;;13.90;96.70;;;;;;5015056;28;20026;-77
2021/10/09 11:17:03;;;;;;;22.52;12.88;;;14.00;96.60;;;;;;5015269;28;20018;-76
2021/10/09 11:19:50;;;;;;;24.48;12.98;;;14.10;96.40;;;;;;5023094;28;20033;-76
2021/10/09 11:22:18;;;;;;;23.02;12.98;;;14.20;96.20;;;;;;5019785;28;20605;-75
2021/10/09 11:24:51;;;;;;;24.45;12.82;;;14.30;96.20;;;;;;5014840;28;20072;-75
2021/10/09 11:27:18;;;;;;;27.15;12.30;;;14.30;96.10;;;;;;5014111;28;20026;-75
2021/10/09 11:30:05;;;;;;;23.10;12.55;;;14.40;96.10;;;;;;5014921;28;20468;-75
2021/10/09 11:32:36;;;;;;;22.10;10.75;;;14.50;96.00;;;;;;5014895;28;20398;-75
2021/10/09 11:35:03;;;;;;;;;;;14.60;96.00;;;;;;5013326;28;20119;-75
2021/10/09 11:37:28;;;;;;;23.67;11.13;;;14.60;96.00;;;;;;5014691;28;19912;-76
2021/10/09 11:40:03;;;;;;;28.33;13.93;;;14.70;95.80;;;;;;5014711;28;20021;-76
2021/10/09 11:42:37;;;;;;;23.00;12.70;;;14.80;95.80;;;;;;5014749;28;20045;-76
2021/10/09 11:56:06;;;;;;;20.15;11.55;;;15.10;95.60;;;;;;5013826;28;20104;-76
2021/10/09 11:58:32;;;;;;;22.98;12.38;;;15.20;95.50;;;;;;5014363;28;20029;-76
2021/10/09 12:00:58;;;;;;;21.23;11.63;;;15.20;95.40;;;;;;5029395;28;20032;-75
2021/10/09 12:03:30;;;;;;;20.90;10.88;;;15.20;95.50;;;;;;5013749;28;20068;-75
2021/10/09 12:06:09;;;;;;;25.50;11.25;;;15.30;95.50;;;;;;5014199;28;20471;-75
2021/10/09 12:08:50;;;;;;;21.83;10.85;;;15.30;95.50;;;;;;5014434;28;20065;-75
2021/10/09 12:11:22;;;;;;;21.13;10.68;;;15.30;95.30;;;;;;5028688;28;20045;-76
2021/10/09 12:13:57;;;;;;;23.17;11.38;;;15.30;95.30;;;;;;5013969;28;20034;-76
2021/10/09 12:16:34;;;;;;;23.90;11.77;;;15.20;95.20;;;;;;5013087;28;20208;-76
2021/10/09 12:19:04;;;;;;;22.67;10.98;;;15.20;95.10;;;;;;5013684;28;20054;-77
2021/10/09 12:21:49;;;;;;;23.13;12.43;;;15.30;95.10;;;;;;5013872;28;20051;-75
2021/10/09 12:24:20;;;;;;;21.65;10.40;;;15.20;95.10;;;;;;5011959;28;20065;-76
2021/10/09 12:27:06;;;;;;;19.10;9.63;;;15.20;95.00;;;;;;5013904;28;20022;-77
2021/10/09 12:29:35;;;;;;;20.27;10.65;;;15.20;94.90;;;;;;5014024;28;20032;-76
2021/10/09 12:32:19;;;;;;;20.27;10.50;;;15.10;94.90;;;;;;5014123;28;20065;-75
2021/10/09 12:34:45;;;;;;;21.25;11.15;;;15.10;94.80;;;;;;5013593;28;20018;-76
2021/10/09 12:37:22;;;;;;;21.35;10.75;;;15.20;94.90;;;;;;5011721;28;20029;-76
2021/10/09 12:40:10;;;;;;;18.95;10.75;;;15.10;95.20;;;;;;5013653;28;20022;-77
2021/10/09 12:42:35;;;;;;;21.58;9.95;;;15.20;94.70;;;;;;5013429;28;20018;-75
2021/10/09 12:45:04;;;;;;;19.95;10.32;;;15.20;94.80;;;;;;5013498;28;20022;-75
2021/10/09 12:47:30;;;;;;;20.42;10.35;;;15.20;94.80;;;;;;5013314;28;20045;-75
2021/10/09 12:49:56;;;;;;;19.08;10.48;;;15.20;94.80;;;;;;5013175;28;20022;-75
2021/10/09 12:52:22;;;;;;;22.00;11.23;;;15.20;94.80;;;;;;5012596;28;20088;-76
2021/10/09 12:54:47;;;;;;;23.02;10.35;;;15.20;94.90;;;;;;5013525;28;20022;-76
2021/10/09 12:57:13;;;;;;;19.02;10.07;;;15.20;94.90;;;;;;5012483;28;20116;-74
2021/10/09 12:59:39;;;;;;;21.35;11.20;;;15.20;94.90;;;;;;5011500;28;20022;-77
2021/10/09 13:02:06;;;;;;;19.30;10.35;;;15.20;94.90;;;;;;5012753;28;20088;-77
2021/10/09 13:04:31;;;;;;;22.30;11.13;;;15.20;94.90;;;;;;5013182;28;20048;-76
2021/10/09 13:06:57;;;;;;;21.13;10.85;;;15.20;95.00;;;;;;5013365;28;20022;-76
2021/10/09 13:09:23;;;;;;;21.85;10.85;;;15.20;94.90;;;;;;5012653;28;20057;-75
2021/10/09 13:11:53;;;;;;;20.20;10.65;;;15.30;94.80;;;;;;5012936;28;20038;-75
2021/10/09 13:14:19;;;;;;;17.88;9.60;;;15.30;94.70;;;;;;5012716;28;20473;-75
2021/10/09 13:16:45;;;;;;;17.90;8.98;;;15.30;94.60;;;;;;5028135;28;20022;-75
2021/10/09 13:19:10;;;;;;;17.98;10.48;;;15.30;94.50;;;;;;5010917;28;20514;-75
2021/10/09 13:21:36;;;;;;;18.70;9.95;;;15.40;94.40;;;;;;5012818;28;20036;-75
2021/10/09 13:24:03;;;;;;;20.83;10.70;;;15.40;94.40;;;;;;5013560;28;20022;-75
2021/10/09 13:26:30;;;;;;;20.60;10.35;;;15.30;94.40;;;;;;5010748;28;20077;-74
2021/10/09 13:28:56;;;;;;;20.75;10.48;;;15.30;94.40;;;;;;5012726;28;20026;-74
2021/10/09 13:31:22;;;;;;;19.48;10.73;;;15.30;94.60;;;;;;5011944;28;20060;-74
2021/10/09 13:33:48;;;;;;;19.27;10.40;;;15.30;94.30;;;;;;5011312;28;20145;-74
2021/10/09 13:36:14;;;;;;;19.38;9.48;;;15.40;94.30;;;;;;5011982;28;20496;-75
2021/10/09 13:38:40;;;;;;;18.92;10.38;;;15.40;94.20;;;;;;5012172;28;20378;-74
2021/10/09 13:41:05;;;;;;;17.67;9.45;;;15.40;94.10;;;;;;5010793;28;20026;-75
2021/10/09 13:43:31;;;;;;;21.20;9.73;;;15.40;94.10;;;;;;5011577;28;20033;-75
2021/10/09 13:45:57;;;;;;;18.08;9.38;;;15.40;94.20;;;;;;5012488;28;20166;-75
2021/10/09 13:48:23;;;;;;;16.95;9.43;;;15.40;94.20;;;;;;5026360;28;20502;-75
2021/10/09 13:50:52;;;;;;;16.92;8.95;;;15.40;94.10;;;;;;5012361;28;20152;-75
2021/10/09 13:53:19;;;;;;;17.70;9.00;;;15.40;94.10;;;;;;5012107;28;20022;-75
2021/10/09 13:55:45;;;;;;;17.38;9.50;;;15.50;94.10;;;;;;5010889;28;20382;-74
2021/10/09 13:58:12;;;;;;;19.33;9.13;;;15.40;94.00;;;;;;5011516;28;20030;-75
2021/10/09 14:00:40;;;;;;;19.48;9.60;;;15.40;94.10;;;;;;5012222;28;20022;-75
2021/10/09 14:03:06;;;;;;;16.70;9.07;;;15.40;94.10;;;;;;5012147;28;20120;-75
2021/10/09 14:05:33;;;;;;;17.90;8.95;;;15.40;94.00;;;;;;5011615;28;20116;-75
2021/10/09 14:07:59;;;;;;;19.60;10.35;;;15.40;94.30;;;;;;5012247;28;20459;-76
2021/10/09 14:10:24;;;;;;;21.92;10.35;;;15.50;94.00;;;;;;5010856;28;20029;-76
2021/10/09 14:12:50;;;;;;;22.20;9.43;;;15.50;94.00;;;;;;5011610;28;20037;-75
2021/10/09 14:15:16;;;;;;;17.48;8.88;;;15.50;94.00;;;;;;5011244;28;20025;-75
2021/10/09 14:17:42;;;;;;;20.58;10.30;;;15.50;93.90;;;;;;5012111;28;20062;-75
2021/10/09 14:20:09;;;;;;;15.65;8.90;;;15.50;93.90;;;;;;5012369;28;20033;-75
2021/10/09 14:22:35;;;;;;;16.48;9.93;;;15.50;93.90;;;;;;5011907;28;20481;-75
2021/10/09 14:25:03;;;;;;;18.83;10.10;;;15.50;94.00;;;;;;5011824;28;20026;-76
2021/10/09 14:27:28;;;;;;;18.70;9.13;;;15.50;94.00;;;;;;5026350;28;20057;-76
2021/10/09 14:29:58;;;;;;;17.63;9.38;;;15.50;94.10;;;;;;5033287;28;20064;-76
2021/10/09 14:32:24;;;;;;;20.35;9.77;;;15.40;94.10;;;;;;5014475;28;20130;-76
2021/10/09 14:34:50;;;;;;;18.98;9.05;;;15.40;94.20;;;;;;5011599;28;20056;-76
2021/10/09 14:37:15;;;;;;;18.88;9.50;;;15.40;94.20;;;;;;5010853;28;20053;-76
2021/10/09 14:39:43;;;;;;;18.50;9.75;;;15.40;94.20;;;;;;5011918;28;20056;-76
2021/10/09 14:42:09;;;;;;;19.63;9.48;;;15.40;94.30;;;;;;5011851;28;20110;-76
2021/10/09 14:44:35;;;;;;;20.35;10.27;;;15.40;94.30;;;;;;5011108;28;20105;-76
2021/10/09 14:47:33;;;;;;;18.42;9.23;;;15.40;94.30;;;;;;5026773;28;20096;-76
2021/10/09 14:52:32;;;;;;;21.27;10.23;;;15.40;94.40;;;;;;5011117;28;20508;-75
2021/10/09 15:19:26;;;;;;;20.88;10.00;;;15.30;94.20;;;;;;5011142;28;20033;-76
2021/10/09 15:21:52;;;;;;;20.63;10.05;;;15.30;94.30;;;;;;5011911;28;20034;-76
2021/10/09 15:24:18;;;;;;;22.83;11.18;;;15.30;94.40;;;;;;5029754;28;20053;-76
2021/10/09 15:26:44;;;;;;;21.67;10.45;;;15.30;94.40;;;;;;5015045;28;20076;-76
2021/10/09 15:29:10;;;;;;;21.20;10.52;;;15.30;94.50;;;;;;5014888;28;20375;-76